Time;durP1;ratioP1;P1;durP2;ratioP2;P2;SDS_P1;SDS_P2;PMS_P1;PMS_P2;Temp;Humidity;BMP_temperature;BMP_pressure;BME280_temperature;BME280_humidity;BME280_pressure;Samples;Min_cycle;Max_cycle;Signal;HPM_P1;HPM_P2
2022/12/03 00:00:40;;;;;;;45.27;19.03;;;2.20;99.90;3.50;97142.00;;;;5101598;28;20487;-67
2022/12/03 00:03:30;;;;;;;41.20;17.30;;;2.30;99.90;3.50;97143.00;;;;5100957;28;20421;-67
2022/12/03 00:06:18;;;;;;;33.03;16.73;;;2.30;99.90;3.60;97141.00;;;;5098155;28;20494;-67
2022/12/03 00:09:07;;;;;;;50.30;17.27;;;2.20;99.90;3.60;97137.00;;;;5102059;28;20432;-67
2022/12/03 00:11:56;;;;;;;44.43;19.60;;;2.20;99.90;3.60;97140.00;;;;5097899;28;20954;-67
2022/12/03 00:14:44;;;;;;;45.43;20.67;;;2.20;99.90;3.50;97139.00;;;;5099015;28;20413;-67
2022/12/03 00:17:33;;;;;;;36.50;17.33;;;2.20;99.90;3.40;97149.00;;;;5107112;28;20416;-67
2022/12/03 00:20:24;;;;;;;39.90;17.73;;;2.20;99.90;3.40;97144.00;;;;5108748;28;20839;-67
2022/12/03 00:23:13;;;;;;;45.23;17.53;;;2.20;99.90;3.50;97149.00;;;;5099599;28;20428;-67
2022/12/03 00:26:02;;;;;;;38.97;16.27;;;2.20;99.90;3.50;97145.00;;;;5097841;28;20842;-67
2022/12/03 00:28:51;;;;;;;34.10;17.30;;;2.20;99.90;3.50;97159.00;;;;5103068;28;20951;-67
2022/12/03 00:31:40;;;;;;;29.57;14.80;;;2.20;99.90;3.50;97159.00;;;;5095989;28;20445;-67
2022/12/03 00:34:29;;;;;;;38.00;17.10;;;2.20;99.90;3.50;97160.00;;;;5099255;28;20425;-67
2022/12/03 00:37:19;;;;;;;34.27;16.27;;;2.20;99.90;3.50;97167.00;;;;5097325;28;20420;-67
2022/12/03 00:40:10;;;;;;;30.37;15.23;;;2.40;99.90;3.40;97168.00;;;;5108176;28;20421;-67
2022/12/03 00:42:59;;;;;;;34.40;16.10;;;2.20;99.90;3.50;97168.00;;;;5099960;28;20458;-67
2022/12/03 00:45:48;;;;;;;34.77;16.40;;;2.20;99.90;3.50;97164.00;;;;5094678;28;20428;-67
2022/12/03 00:48:36;;;;;;;43.23;16.10;;;2.20;99.90;3.50;97163.00;;;;5098805;28;20687;-67
2022/12/03 00:51:25;;;;;;;32.90;17.10;;;2.20;99.90;3.50;97162.00;;;;5103122;28;20829;-67
2022/12/03 00:54:15;;;;;;;42.17;16.60;;;2.20;99.90;3.50;97160.00;;;;5107343;28;20420;-67
2022/12/03 00:57:04;;;;;;;38.30;15.70;;;2.20;99.90;3.50;97167.00;;;;5094223;28;20421;-67
2022/12/03 00:59:53;;;;;;;42.20;16.50;;;2.20;99.90;3.50;97161.00;;;;5105779;28;20495;-67
2022/12/03 01:02:42;;;;;;;39.77;16.47;;;2.20;99.90;3.50;97165.00;;;;5094396;28;20457;-67
2022/12/03 01:05:31;;;;;;;33.50;12.37;;;2.20;99.90;3.50;97175.00;;;;5091521;28;20819;-67
2022/12/03 01:08:20;;;;;;;37.10;15.80;;;2.20;99.90;3.50;97154.00;;;;5102072;28;20955;-67
2022/12/03 01:11:36;;;;;;;34.57;15.47;;;2.30;99.90;3.50;97171.00;;;;5102322;28;20456;-67
2022/12/03 01:14:20;;;;;;;30.40;13.83;;;2.20;99.90;3.60;97164.00;;;;5106814;28;20798;-67
2022/12/03 01:17:09;;;;;;;29.63;13.87;;;2.20;99.90;3.50;97163.00;;;;5095811;28;20821;-67
2022/12/03 01:19:57;;;;;;;31.07;15.40;;;2.20;99.90;3.60;97159.00;;;;5091439;28;20982;-67
2022/12/03 01:22:46;;;;;;;33.50;15.67;;;2.30;99.90;3.60;97170.00;;;;5100809;28;20972;-67
2022/12/03 01:25:35;;;;;;;25.47;13.87;;;2.30;99.90;3.60;97172.00;;;;5103669;28;20420;-67
2022/12/03 01:28:25;;;;;;;35.33;14.37;;;2.50;99.90;3.60;97158.00;;;;5100362;28;20416;-67
2022/12/03 01:34:19;;;;;;;28.90;14.60;;;2.30;99.90;3.60;97156.00;;;;5079001;28;20428;-67
2022/12/03 01:37:08;;;;;;;35.23;14.87;;;2.20;99.90;3.60;97146.00;;;;5103402;28;20440;-67
2022/12/03 01:39:57;;;;;;;34.83;15.97;;;2.50;99.90;3.60;97166.00;;;;5106746;28;20424;-67
2022/12/03 01:42:46;;;;;;;29.20;15.27;;;2.50;99.90;3.60;97163.00;;;;5095334;28;20464;-67
2022/12/03 01:45:36;;;;;;;34.23;15.33;;;2.30;99.90;3.60;97167.00;;;;5094455;28;20418;-67
2022/12/03 01:48:25;;;;;;;38.53;17.53;;;2.30;99.90;3.60;97161.00;;;;5103131;28;20433;-67
2022/12/03 01:51:15;;;;;;;29.50;14.77;;;2.30;99.90;3.50;97167.00;;;;5111010;28;20445;-67
2022/12/03 01:54:04;;;;;;;34.47;16.47;;;2.30;99.90;3.50;97165.00;;;;5110993;28;20433;-67
2022/12/03 01:56:54;;;;;;;33.97;19.00;;;2.30;99.90;3.50;97164.00;;;;5110870;28;20493;-67
2022/12/03 01:59:43;;;;;;;32.10;15.57;;;2.30;99.90;3.60;97163.00;;;;5110152;28;20428;-67
2022/12/03 02:02:33;;;;;;;37.03;15.70;;;2.30;99.90;3.50;97169.00;;;;5095765;28;20476;-67
2022/12/03 02:05:26;;;;;;;38.47;15.67;;;2.30;99.90;3.60;97169.00;;;;5090924;28;20444;-67
2022/12/03 02:08:30;;;;;;;35.67;17.53;;;2.30;99.90;3.50;97173.00;;;;5097722;28;20409;-67
2022/12/03 02:11:25;;;;;;;33.50;14.17;;;2.20;99.90;3.60;97169.00;;;;5091288;28;20441;-67
2022/12/03 02:14:19;;;;;;;35.30;14.83;;;2.30;99.90;3.50;97166.00;;;;5105249;28;20428;-67
2022/12/03 02:17:07;;;;;;;37.80;18.17;;;2.40;99.90;3.50;97163.00;;;;5095876;28;20670;-67
2022/12/03 02:19:58;;;;;;;36.17;16.80;;;2.30;99.90;3.50;97174.00;;;;5101108;28;20417;-67
2022/12/03 02:22:57;;;;;;;27.57;14.40;;;2.30;99.90;3.50;97171.00;;;;5096068;28;20467;-67
2022/12/03 02:25:47;;;;;;;35.97;16.30;;;2.20;99.90;3.50;97175.00;;;;5103354;28;20966;-66
2022/12/03 02:28:36;;;;;;;30.77;15.37;;;2.30;99.90;3.50;97180.00;;;;5101829;28;20838;-66
2022/12/03 02:31:25;;;;;;;39.53;18.37;;;2.20;99.90;3.50;97184.00;;;;5098031;28;20826;-67
2022/12/03 02:34:40;;;;;;;33.40;17.37;;;2.30;99.90;3.50;97186.00;;;;5107486;28;20421;-66
2022/12/03 02:37:35;;;;;;;28.73;17.13;;;2.20;99.90;3.20;97182.00;;;;5098730;28;20444;-67
2022/12/03 02:40:27;;;;;;;29.10;14.93;;;2.30;99.90;2.90;97189.00;;;;5109679;28;20444;-67
2022/12/03 02:43:18;;;;;;;28.07;14.30;;;2.10;99.90;3.20;97181.00;;;;5105115;28;20457;-66
2022/12/03 02:46:08;;;;;;;34.50;16.67;;;2.20;99.90;3.30;97188.00;;;;5096406;28;20433;-67
2022/12/03 02:48:57;;;;;;;29.47;15.10;;;2.10;99.90;3.20;97200.00;;;;5101442;28;20809;-67
2022/12/03 02:51:46;;;;;;;29.07;13.70;;;2.00;99.90;3.20;97203.00;;;;5093573;28;20441;-67
2022/12/03 02:54:35;;;;;;;36.03;14.60;;;2.00;99.90;3.30;97206.00;;;;5100740;28;20409;-67
2022/12/03 02:57:24;;;;;;;27.97;15.80;;;2.00;99.90;3.30;97198.00;;;;5096033;28;20425;-67
2022/12/03 03:00:17;;;;;;;27.17;14.47;;;2.00;99.90;3.40;97193.00;;;;5089770;28;20437;-67
2022/12/03 03:03:08;;;;;;;28.27;13.27;;;2.10;99.90;3.40;97192.00;;;;5089741;28;20469;-67
2022/12/03 03:05:58;;;;;;;31.17;15.90;;;2.30;99.90;3.40;97202.00;;;;5089062;28;20426;-66
2022/12/03 03:08:47;;;;;;;28.60;13.00;;;2.10;99.90;3.40;97186.00;;;;5089921;28;20421;-67
2022/12/03 03:11:35;;;;;;;33.37;14.67;;;2.10;99.90;3.40;97200.00;;;;5088840;28;20441;-67
2022/12/03 03:14:24;;;;;;;30.23;12.80;;;2.10;99.90;3.40;97192.00;;;;5090765;28;20429;-66
2022/12/03 03:17:14;;;;;;;23.57;11.63;;;2.10;99.90;3.30;97186.00;;;;5089625;28;20418;-66
2022/12/03 03:20:06;;;;;;;32.27;14.33;;;2.00;99.90;3.40;97190.00;;;;5089159;28;20433;-67
2022/12/03 03:23:05;;;;;;;28.23;14.33;;;2.10;99.90;3.50;97191.00;;;;5090534;28;20453;-66
2022/12/03 03:26:12;;;;;;;30.97;12.03;;;2.40;99.90;3.40;97190.00;;;;5068538;28;20456;-67
2022/12/03 03:29:02;;;;;;;26.33;12.47;;;2.20;99.90;3.30;97197.00;;;;5098035;28;20821;-67
2022/12/03 03:31:50;;;;;;;26.50;12.30;;;2.10;99.90;3.30;97206.00;;;;5096845;28;20453;-67
2022/12/03 03:34:41;;;;;;;27.50;13.13;;;2.10;99.90;3.40;97205.00;;;;5102978;28;20424;-67
2022/12/03 03:37:30;;;;;;;27.20;12.87;;;2.10;99.90;3.30;97203.00;;;;5098504;28;20435;-67
2022/12/03 03:40:19;;;;;;;19.80;11.60;;;2.10;99.90;3.20;97213.00;;;;5110019;28;20452;-66
2022/12/03 03:43:08;;;;;;;21.93;11.97;;;2.10;99.90;3.30;97217.00;;;;5099502;28;20642;-66
2022/12/03 03:45:57;;;;;;;20.53;11.43;;;2.10;99.90;3.30;97212.00;;;;5103074;28;20421;-67
2022/12/03 03:48:48;;;;;;;25.53;12.10;;;2.10;99.90;3.40;97199.00;;;;5096685;28;20413;-67
2022/12/03 03:51:39;;;;;;;21.73;12.03;;;2.10;99.90;3.40;97197.00;;;;5094759;28;20437;-66
2022/12/03 03:54:28;;;;;;;23.97;11.67;;;2.10;99.90;3.50;97206.00;;;;5109239;28;20432;-67
2022/12/03 03:57:17;;;;;;;23.23;11.20;;;2.10;99.90;3.50;97191.00;;;;5108636;28;20420;-67
2022/12/03 04:00:08;;;;;;;23.17;10.70;;;2.30;99.90;3.50;97183.00;;;;5096208;28;20425;-67
2022/12/03 04:02:57;;;;;;;24.30;12.27;;;2.20;99.90;3.50;97201.00;;;;5088614;28;20469;-67
2022/12/03 04:05:49;;;;;;;31.10;11.33;;;2.20;99.90;3.50;97196.00;;;;5101686;28;20417;-67
2022/12/03 04:08:39;;;;;;;25.57;12.33;;;2.20;99.90;3.50;97183.00;;;;5088892;28;20409;-67
2022/12/03 04:14:34;;;;;;;26.90;12.77;;;2.40;99.90;3.60;97189.00;;;;5097074;28;20425;-66
2022/12/03 04:17:23;;;;;;;29.57;15.20;;;2.20;99.90;3.60;97178.00;;;;5097548;28;20425;-66
2022/12/03 04:20:13;;;;;;;31.47;12.50;;;2.40;99.90;3.60;97187.00;;;;5108380;28;20468;-67
2022/12/03 04:23:01;;;;;;;25.10;12.00;;;2.20;99.90;3.60;97183.00;;;;5102367;28;20457;-66
2022/12/03 04:28:57;;;;;;;31.83;13.47;;;2.20;99.90;3.40;97197.00;;;;5105844;28;20975;-67
2022/12/03 04:38:03;;;;;;;28.30;14.13;;;2.20;99.90;3.50;97182.00;;;;5100534;28;20431;-67
2022/12/03 04:41:03;;;;;;;25.97;12.23;;;2.20;99.90;3.30;97181.00;;;;5105562;28;20440;-66
2022/12/03 04:46:58;;;;;;;22.07;11.60;;;;;3.40;97182.00;;;;5104927;28;20416;-67
2022/12/03 04:49:49;;;;;;;28.50;13.70;;;2.20;99.90;3.40;97183.00;;;;5092439;28;20421;-67
2022/12/03 04:52:38;;;;;;;23.43;12.67;;;2.20;99.90;3.50;97187.00;;;;5092810;28;20425;-67
2022/12/03 04:55:27;;;;;;;25.67;12.43;;;2.70;99.90;3.50;97181.00;;;;5092912;28;20804;-67
2022/12/03 04:58:17;;;;;;;27.33;13.27;;;2.20;99.90;3.40;97180.00;;;;5091136;28;20435;-67
2022/12/03 05:01:05;;;;;;;36.13;13.37;;;2.30;99.90;3.30;97191.00;;;;5092056;28;20449;-67
2022/12/03 05:03:54;;;;;;;26.33;12.10;;;2.20;99.90;3.30;97182.00;;;;5104838;28;20473;-67
2022/12/03 05:06:43;;;;;;;31.50;14.13;;;2.30;99.90;3.40;97191.00;;;;5102521;28;20447;-67
2022/12/03 05:09:32;;;;;;;32.43;14.50;;;2.30;99.90;3.40;97196.00;;;;5100483;28;20414;-67
2022/12/03 05:12:20;;;;;;;28.47;12.93;;;2.10;99.90;3.40;97190.00;;;;5103095;28;20428;-67
2022/12/03 05:15:11;;;;;;;25.73;10.80;;;2.30;99.90;3.40;97185.00;;;;5111647;28;20810;-67
2022/12/03 05:18:00;;;;;;;27.23;12.27;;;2.10;99.90;3.40;97205.00;;;;5100902;28;20942;-67
2022/12/03 05:20:48;;;;;;;26.43;13.63;;;2.00;99.90;3.40;97198.00;;;;5104963;28;20514;-67
2022/12/03 05:23:41;;;;;;;27.63;11.70;;;2.10;99.90;3.40;97191.00;;;;5100239;28;20594;-67
2022/12/03 05:26:29;;;;;;;26.87;12.20;;;2.20;99.90;3.40;97191.00;;;;5103911;28;20425;-67
2022/12/03 05:29:18;;;;;;;37.40;13.37;;;2.10;99.90;3.40;97190.00;;;;5105555;28;20429;-67
2022/12/03 05:32:08;;;;;;;32.13;12.50;;;2.20;99.90;3.40;97181.00;;;;5097954;28;20449;-67
2022/12/03 05:34:57;;;;;;;31.87;14.33;;;2.10;99.90;3.40;97183.00;;;;5105961;28;20417;-67
2022/12/03 05:37:46;;;;;;;26.77;13.47;;;2.10;99.90;3.30;97187.00;;;;5098110;28;20424;-67
2022/12/03 05:40:34;;;;;;;33.40;14.33;;;2.10;99.90;3.30;97184.00;;;;5111208;28;20467;-67
2022/12/03 05:43:23;;;;;;;32.77;15.03;;;2.10;99.90;3.40;97176.00;;;;5102803;28;20849;-67
2022/12/03 05:46:11;;;;;;;31.17;13.87;;;2.10;99.90;3.40;97188.00;;;;5102133;28;20894;-67
2022/12/03 05:49:01;;;;;;;25.93;13.20;;;2.10;99.90;3.40;97190.00;;;;5109445;27;20424;-67
2022/12/03 05:51:50;;;;;;;27.03;13.30;;;2.10;99.90;3.40;97186.00;;;;5108829;28;20519;-67
2022/12/03 05:54:42;;;;;;;21.93;11.10;;;2.00;99.90;3.40;97195.00;;;;5107779;28;20440;-67
2022/12/03 05:57:31;;;;;;;37.67;14.83;;;2.10;99.90;3.50;97188.00;;;;5109028;28;20401;-67
2022/12/03 06:00:23;;;;;;;34.27;13.53;;;2.10;99.90;3.50;97192.00;;;;5094727;28;20446;-67
2022/12/03 06:03:12;;;;;;;26.17;11.03;;;2.10;99.90;3.50;97188.00;;;;5103435;28;20429;-67
2022/12/03 06:06:02;;;;;;;34.10;12.27;;;2.10;99.90;3.50;97186.00;;;;5104773;28;20425;-67
2022/12/03 06:08:51;;;;;;;23.97;12.53;;;2.20;99.90;3.50;97191.00;;;;5109443;28;20420;-67
2022/12/03 06:11:40;;;;;;;34.03;12.17;;;2.20;99.90;3.50;97191.00;;;;5109404;28;21254;-67
2022/12/03 06:14:30;;;;;;;23.20;12.57;;;2.20;99.90;3.60;97190.00;;;;5105805;28;20940;-67
2022/12/03 06:17:19;;;;;;;22.73;12.23;;;2.20;99.90;3.50;97193.00;;;;5105340;28;20437;-67
2022/12/03 06:20:10;;;;;;;25.43;12.83;;;2.20;99.90;3.50;97191.00;;;;5101892;28;20432;-67
2022/12/03 06:23:01;;;;;;;27.77;13.27;;;2.20;99.90;3.50;97187.00;;;;5098907;28;20433;-67
2022/12/03 06:25:49;;;;;;;22.40;11.37;;;2.20;99.90;3.50;97188.00;;;;5105607;28;20482;-67
2022/12/03 06:28:38;;;;;;;27.30;12.47;;;2.20;99.90;3.60;97197.00;;;;5105933;28;20422;-67
2022/12/03 06:31:27;;;;;;;29.80;12.37;;;2.40;99.90;3.60;97194.00;;;;5105975;28;20445;-67
2022/12/03 06:34:16;;;;;;;31.13;13.37;;;2.20;99.90;3.50;97199.00;;;;5106074;28;20420;-67
2022/12/03 06:37:05;;;;;;;28.37;12.80;;;3.60;99.90;3.50;97195.00;;;;5106404;28;20424;-67
2022/12/03 06:39:55;;;;;;;25.57;12.67;;;2.10;99.90;3.60;97189.00;;;;5108020;28;20931;-67
2022/12/03 06:42:44;;;;;;;22.70;11.53;;;2.40;99.90;3.60;97186.00;;;;5107747;28;20439;-67
2022/12/03 06:45:33;;;;;;;25.43;11.67;;;2.30;99.90;3.50;97195.00;;;;5104667;28;20464;-67
2022/12/03 06:48:21;;;;;;;30.20;12.60;;;2.30;99.90;3.60;97191.00;;;;5105773;28;20915;-67
2022/12/03 06:51:10;;;;;;;27.03;12.77;;;;;3.50;97200.00;;;;5106730;28;20449;-67
2022/12/03 06:53:59;;;;;;;20.60;10.97;;;2.30;99.90;3.40;97204.00;;;;5108027;28;20426;-67
2022/12/03 06:56:49;;;;;;;26.97;12.43;;;2.20;99.90;3.50;97210.00;;;;5105455;28;20425;-67
2022/12/03 06:59:38;;;;;;;22.50;10.00;;;2.20;99.90;3.60;97203.00;;;;5107107;28;20428;-67
2022/12/03 07:02:27;;;;;;;20.73;10.73;;;2.20;99.90;3.60;97205.00;;;;5102893;28;20443;-67
2022/12/03 07:05:16;;;;;;;22.23;11.70;;;2.20;99.90;3.50;97216.00;;;;5102335;28;20537;-67
2022/12/03 07:08:05;;;;;;;27.17;11.70;;;2.20;99.90;3.60;97216.00;;;;5105128;28;20437;-67
2022/12/03 07:10:54;;;;;;;25.37;11.07;;;2.20;99.90;3.60;97217.00;;;;5103900;28;20451;-67
2022/12/03 07:13:45;;;;;;;23.93;12.73;;;2.50;99.90;3.60;97218.00;;;;5102900;28;20959;-67
2022/12/03 07:16:34;;;;;;;25.57;13.37;;;2.30;99.90;3.60;97223.00;;;;5104619;28;20425;-67
2022/12/03 07:19:23;;;;;;;25.37;12.57;;;2.30;99.90;3.50;97224.00;;;;5107012;28;20425;-67
2022/12/03 07:22:15;;;;;;;19.97;11.20;;;2.30;99.90;3.60;97227.00;;;;5101471;28;20483;-67
2022/12/03 07:25:04;;;;;;;22.10;11.87;;;2.30;99.90;3.60;97235.00;;;;5103036;28;20464;-67
2022/12/03 07:27:53;;;;;;;23.93;11.93;;;2.30;99.90;3.60;97227.00;;;;5103360;28;20440;-67
2022/12/03 07:30:43;;;;;;;26.80;12.93;;;2.30;99.90;3.60;97219.00;;;;5107244;28;20451;-67
2022/12/03 07:33:31;;;;;;;24.30;12.37;;;2.40;99.90;3.60;97229.00;;;;5102034;28;20436;-67
2022/12/03 07:36:20;;;;;;;32.13;12.73;;;2.30;99.90;3.60;97228.00;;;;5098445;28;20793;-67
2022/12/03 07:39:09;;;;;;;20.57;11.43;;;2.40;99.90;3.70;97221.00;;;;5098025;28;20409;-67
2022/12/03 07:41:58;;;;;;;27.27;11.33;;;2.30;99.90;3.60;97216.00;;;;5106505;28;20452;-67
2022/12/03 07:44:47;;;;;;;28.23;11.87;;;2.40;99.90;3.70;97224.00;;;;5102937;28;20453;-67
2022/12/03 07:47:37;;;;;;;20.27;10.70;;;2.40;99.90;3.70;97221.00;;;;5106264;28;20409;-67
2022/12/03 07:50:27;;;;;;;25.80;11.60;;;2.40;99.90;3.70;97217.00;;;;5101489;28;20964;-67
2022/12/03 07:53:15;;;;;;;22.80;11.63;;;2.40;99.90;3.70;97218.00;;;;5110924;28;20439;-67
2022/12/03 07:56:05;;;;;;;33.27;12.70;;;2.40;99.90;3.70;97218.00;;;;5110095;28;20424;-67
2022/12/03 07:58:54;;;;;;;25.07;12.53;;;2.40;99.90;3.80;97214.00;;;;5108924;28;20904;-66
2022/12/03 08:01:43;;;;;;;27.50;11.97;;;2.40;99.90;3.80;97222.00;;;;5112671;28;20432;-67
2022/12/03 08:04:33;;;;;;;26.47;13.27;;;2.50;99.90;3.80;97222.00;;;;5109624;28;20472;-67
2022/12/03 08:07:22;;;;;;;23.03;13.13;;;2.40;99.90;3.80;97226.00;;;;5106951;28;20502;-67
2022/12/03 08:10:11;;;;;;;26.57;13.20;;;2.50;99.90;3.90;97215.00;;;;5104541;28;20417;-67
2022/12/03 08:13:00;;;;;;;25.40;13.17;;;2.50;99.90;3.90;97219.00;;;;5101423;28;20816;-66
2022/12/03 08:15:49;;;;;;;26.23;12.63;;;2.60;99.90;4.00;97220.00;;;;5106393;28;20429;-67
2022/12/03 08:18:38;;;;;;;25.87;11.80;;;2.50;99.90;3.90;97225.00;;;;5093708;28;20414;-67
2022/12/03 08:21:34;;;;;;;29.43;14.07;;;2.60;99.90;3.90;97216.00;;;;5102574;28;20475;-67
2022/12/03 08:24:23;;;;;;;35.07;15.60;;;2.60;99.90;3.80;97222.00;;;;5110326;28;20423;-67
2022/12/03 08:27:18;;;;;;;24.80;12.53;;;2.50;99.90;3.80;97226.00;;;;5107650;28;20432;-67
2022/12/03 08:30:11;;;;;;;29.13;15.00;;;2.40;99.90;4.00;97227.00;;;;5104499;28;20489;-67
2022/12/03 08:33:00;;;;;;;28.43;13.27;;;2.60;99.90;4.00;97226.00;;;;5101579;28;20213;-66
2022/12/03 08:35:50;;;;;;;36.80;13.20;;;2.50;99.90;4.00;97241.00;;;;5105658;28;20414;-67
2022/12/03 08:38:40;;;;;;;29.73;13.90;;;2.60;99.90;3.90;97241.00;;;;5103131;28;20432;-67
2022/12/03 08:44:40;;;;;;;29.70;13.00;;;2.70;99.90;3.90;97245.00;;;;5107359;28;20417;-67
2022/12/03 08:47:30;;;;;;;33.33;13.00;;;2.60;99.90;4.00;97240.00;;;;5109856;28;20432;-67
2022/12/03 08:50:29;;;;;;;28.87;13.50;;;2.60;99.90;4.00;97239.00;;;;5104303;28;20452;-67
2022/12/03 08:53:35;;;;;;;29.13;13.70;;;2.60;99.90;4.10;97238.00;;;;5108670;28;20429;-67
2022/12/03 08:56:28;;;;;;;30.07;14.03;;;2.80;99.90;3.90;97238.00;;;;5096441;28;20968;-67
2022/12/03 08:59:26;;;;;;;25.30;13.70;;;2.70;99.90;4.00;97236.00;;;;5108991;28;20435;-67
2022/12/03 09:02:26;;;;;;;26.33;13.20;;;2.70;99.90;4.00;97240.00;;;;5097795;28;20864;-65
2022/12/03 09:05:20;;;;;;;31.73;14.03;;;2.70;99.90;3.90;97244.00;;;;5112476;28;20653;-65
2022/12/03 09:08:09;;;;;;;28.27;14.10;;;2.70;99.90;4.00;97240.00;;;;5099611;28;20437;-65
2022/12/03 09:10:57;;;;;;;30.17;13.13;;;2.70;99.90;4.00;97249.00;;;;5101414;28;20444;-65
2022/12/03 09:13:48;;;;;;;34.80;13.97;;;2.70;99.90;4.00;97247.00;;;;5109222;28;20432;-65
2022/12/03 09:16:36;;;;;;;22.33;14.00;;;2.70;99.90;4.00;97233.00;;;;5103809;28;20455;-65
2022/12/03 09:19:29;;;;;;;25.00;13.77;;;2.70;99.90;4.00;97235.00;;;;5101790;28;20718;-65
2022/12/03 09:22:18;;;;;;;25.47;12.13;;;2.70;99.90;4.10;97236.00;;;;5099555;28;20908;-65
2022/12/03 09:25:08;;;;;;;31.37;14.00;;;2.70;99.90;4.10;97217.00;;;;5105939;28;20464;-66
2022/12/03 09:27:57;;;;;;;25.17;12.87;;;2.70;99.90;3.90;97227.00;;;;5103820;28;20444;-66
2022/12/03 09:30:47;;;;;;;27.43;11.97;;;2.70;99.90;4.00;97229.00;;;;5107174;28;20452;-66
2022/12/03 09:33:36;;;;;;;29.17;14.83;;;2.70;99.90;3.90;97221.00;;;;5094245;28;20413;-66
2022/12/03 09:36:24;;;;;;;28.53;14.37;;;2.70;99.90;4.00;97214.00;;;;5103850;28;20453;-66
2022/12/03 09:39:13;;;;;;;33.23;13.10;;;2.70;99.90;4.00;97220.00;;;;5100792;28;20443;-66
2022/12/03 09:42:03;;;;;;;35.93;14.47;;;2.70;99.90;4.00;97231.00;;;;5097874;28;20460;-66
2022/12/03 09:44:52;;;;;;;29.67;14.20;;;2.70;99.90;4.10;97222.00;;;;5104763;28;20422;-66
2022/12/03 09:47:45;;;;;;;26.90;12.87;;;2.70;99.90;4.10;97219.00;;;;5104647;28;20432;-66
2022/12/03 09:50:34;;;;;;;29.43;14.23;;;2.70;99.90;4.10;97216.00;;;;5104329;28;20428;-66
2022/12/03 09:53:26;;;;;;;30.53;14.00;;;2.70;99.90;4.20;97215.00;;;;5095445;28;20429;-66
2022/12/03 09:56:21;;;;;;;31.50;16.17;;;2.80;99.90;4.20;97203.00;;;;5107611;28;20432;-67
2022/12/03 09:59:13;;;;;;;34.53;15.07;;;2.80;99.90;4.10;97208.00;;;;5103675;28;20430;-67
2022/12/03 10:02:03;;;;;;;26.23;13.67;;;2.80;99.90;4.10;97207.00;;;;5106046;28;20724;-67
2022/12/03 10:04:54;;;;;;;26.80;14.60;;;2.80;99.90;4.10;97204.00;;;;5103359;28;20425;-67
2022/12/03 10:07:42;;;;;;;32.40;15.70;;;2.80;99.90;4.20;97203.00;;;;5093878;28;20512;-67
2022/12/03 10:10:32;;;;;;;30.07;15.40;;;2.90;99.90;4.30;97205.00;;;;5090706;28;20448;-67
2022/12/03 10:13:26;;;;;;;26.70;14.73;;;2.90;99.90;4.30;97204.00;;;;5106547;28;20428;-67
2022/12/03 10:16:17;;;;;;;28.80;13.80;;;2.90;99.90;4.30;97211.00;;;;5098144;28;20215;-67
2022/12/03 10:19:06;;;;;;;23.70;13.60;;;2.90;99.90;4.20;97202.00;;;;5106017;28;20199;-67
2022/12/03 10:21:57;;;;;;;33.80;14.87;;;2.90;99.90;4.20;97198.00;;;;5107319;27;20654;-67
2022/12/03 10:24:45;;;;;;;29.97;15.37;;;2.90;99.90;4.10;97202.00;;;;5102925;28;20427;-67
2022/12/03 10:27:34;;;;;;;32.77;13.07;;;2.90;99.90;4.20;97197.00;;;;5109320;28;20198;-67
2022/12/03 10:30:25;;;;;;;24.47;14.37;;;2.90;99.90;4.30;97192.00;;;;5110804;28;20222;-67
2022/12/03 10:33:14;;;;;;;29.10;13.87;;;2.90;99.90;4.20;97186.00;;;;5105314;28;20437;-67
2022/12/03 10:36:19;;;;;;;28.83;14.07;;;2.90;99.90;4.30;97180.00;;;;5108257;28;20208;-67
2022/12/03 10:39:13;;;;;;;30.00;14.70;;;2.90;99.90;4.40;97183.00;;;;5100809;28;20420;-67
2022/12/03 10:42:15;;;;;;;30.10;14.50;;;3.00;99.90;3.80;97182.00;;;;5110051;28;20448;-67
2022/12/03 10:45:17;;;;;;;23.20;13.43;;;2.90;99.90;3.70;97180.00;;;;5111415;28;20435;-67
2022/12/03 10:48:12;;;;;;;36.60;15.77;;;2.80;99.90;3.60;97178.00;;;;5099309;27;20436;-67
2022/12/03 10:51:05;;;;;;;27.70;13.50;;;2.70;99.90;3.50;97182.00;;;;5101146;28;20452;-67
2022/12/03 10:53:54;;;;;;;26.17;13.87;;;2.70;99.90;3.50;97178.00;;;;5099512;28;20430;-67
2022/12/03 10:56:46;;;;;;;38.33;17.80;;;2.60;99.90;3.60;97172.00;;;;5101508;28;20416;-67
2022/12/03 10:59:42;;;;;;;22.77;12.50;;;2.60;99.90;3.40;97171.00;;;;5110362;28;20428;-67
2022/12/03 11:02:31;;;;;;;30.47;13.67;;;2.50;99.90;3.40;97169.00;;;;5108750;28;20511;-67
2022/12/03 11:05:25;;;;;;;28.57;14.20;;;2.70;99.90;3.30;97170.00;;;;5103296;28;20433;-67
2022/12/03 11:08:21;;;;;;;34.27;16.13;;;2.50;99.90;3.20;97175.00;;;;5100483;28;20437;-67
2022/12/03 11:11:18;;;;;;;28.33;14.17;;;2.40;99.90;2.80;97173.00;;;;5097436;28;20457;-67
2022/12/03 11:14:10;;;;;;;26.93;11.17;;;2.40;99.90;3.10;97163.00;;;;5103969;28;20429;-68
2022/12/03 11:17:08;;;;;;;27.30;13.13;;;2.30;99.90;3.30;97165.00;;;;5106454;28;20428;-67
2022/12/03 11:19:58;;;;;;;34.77;15.33;;;2.60;99.90;3.30;97155.00;;;;5102805;28;20436;-67
2022/12/03 11:22:48;;;;;;;22.13;13.50;;;2.40;99.90;3.50;97155.00;;;;5096216;28;20944;-66
2022/12/03 11:25:49;;;;;;;21.10;11.03;;;2.40;99.90;3.50;97159.00;;;;5099972;28;20449;-67
2022/12/03 11:28:52;;;;;;;30.30;15.97;;;2.50;99.90;3.60;97158.00;;;;5103288;28;20484;-67
2022/12/03 11:31:45;;;;;;;27.77;13.53;;;2.60;99.90;3.70;97156.00;;;;5100593;28;20986;-66
2022/12/03 11:34:42;;;;;;;28.70;12.00;;;2.50;99.90;3.80;97152.00;;;;5101606;28;20439;-67
2022/12/03 11:37:31;;;;;;;27.07;11.67;;;2.60;99.90;3.90;97158.00;;;;5095960;28;20447;-67
2022/12/03 11:40:29;;;;;;;24.47;11.63;;;2.70;99.90;3.80;97155.00;;;;5106234;28;20447;-67
2022/12/03 11:44:03;;;;;;;31.30;11.57;;;2.60;99.90;4.00;97164.00;;;;5106273;28;20493;-67
2022/12/03 11:46:54;;;;;;;27.03;11.53;;;2.60;99.90;4.00;97160.00;;;;5097192;28;20838;-67
2022/12/03 11:49:48;;;;;;;26.97;12.47;;;2.70;99.90;4.00;97162.00;;;;5103627;28;20456;-67
2022/12/03 11:52:44;;;;;;;30.37;13.00;;;2.70;99.90;3.90;97160.00;;;;5099123;28;20412;-67
2022/12/03 11:55:37;;;;;;;19.70;10.50;;;2.70;99.90;4.10;97162.00;;;;5106811;28;20416;-67
2022/12/03 11:58:29;;;;;;;24.50;11.33;;;2.70;99.90;4.10;97155.00;;;;5094476;28;20443;-67
2022/12/03 12:01:33;;;;;;;28.60;12.13;;;2.80;99.90;4.10;97151.00;;;;5100114;28;20457;-67
2022/12/03 12:04:34;;;;;;;26.63;12.20;;;2.90;99.90;4.10;97153.00;;;;5101249;28;20439;-66
2022/12/03 12:07:35;;;;;;;22.47;11.83;;;2.80;99.90;4.20;97151.00;;;;5104453;28;20483;-67
2022/12/03 12:10:46;;;;;;;22.73;11.80;;;2.80;99.90;4.20;97145.00;;;;5096353;28;20487;-67
2022/12/03 12:13:55;;;;;;;21.10;12.23;;;2.90;99.90;4.30;97140.00;;;;5100768;28;20452;-67
2022/12/03 12:16:50;;;;;;;23.27;12.03;;;2.90;99.90;4.30;97129.00;;;;5104568;28;20198;-67
2022/12/03 12:19:43;;;;;;;25.33;13.63;;;3.20;99.90;4.40;97139.00;;;;5104400;28;20207;-67
2022/12/03 12:22:32;;;;;;;22.97;13.07;;;2.90;99.90;4.40;97135.00;;;;5101809;28;20259;-67
2022/12/03 12:25:47;;;;;;;27.83;13.33;;;3.00;99.90;4.40;97130.00;;;;5100270;28;20198;-67
2022/12/03 12:28:40;;;;;;;22.07;12.50;;;3.00;99.90;4.40;97126.00;;;;5063280;28;20210;-67
2022/12/03 12:31:28;;;;;;;26.40;13.33;;;3.00;99.90;4.50;97129.00;;;;5104544;28;20249;-67
2022/12/03 12:34:17;;;;;;;39.53;15.77;;;3.10;99.90;4.60;97117.00;;;;5104816;28;20693;-67
2022/12/03 12:37:12;;;;;;;35.03;19.90;;;3.10;99.90;4.50;97125.00;;;;5106997;28;20202;-67
2022/12/03 12:40:09;;;;;;;23.87;14.20;;;3.20;99.90;4.30;97126.00;;;;5111590;28;20575;-67
2022/12/03 12:43:01;;;;;;;25.00;13.40;;;3.20;99.90;4.40;97126.00;;;;5111377;28;20677;-67
2022/12/03 12:45:55;;;;;;;19.63;11.60;;;3.10;99.90;4.40;97117.00;;;;5107150;28;20413;-67
2022/12/03 12:48:44;;;;;;;33.67;17.80;;;3.30;99.90;4.50;97111.00;;;;5110677;28;20191;-67
2022/12/03 12:51:43;;;;;;;30.90;15.43;;;3.10;99.90;4.60;97115.00;;;;5110997;28;20439;-67
2022/12/03 12:54:33;;;;;;;27.17;14.90;;;3.10;99.90;4.60;97117.00;;;;5108395;28;20582;-67
2022/12/03 12:57:24;;;;;;;28.30;14.77;;;3.20;99.90;4.70;97123.00;;;;5110332;28;20217;-67
2022/12/03 13:00:19;;;;;;;33.13;17.33;;;3.20;99.90;4.60;97115.00;;;;5108467;28;20238;-67
2022/12/03 13:03:11;;;;;;;26.53;15.23;;;3.20;99.90;4.70;97109.00;;;;5108574;28;20431;-67